N11059 KORF-KLAS
Flight info
| Callsign | N11059 |
|---|---|
| Flight time | N/A |
| Altitude | 20000 |
| Route | KORF NUTIY1 KELLE JEEVY DCT PINEE DCT ZITXI DCT FEEBE DCT JODPU DCT FEBEM DCT EDPIW DCT UDCOS DCT MOGIE DCT ZUPAB DCT TOKIE DCT KINGO DCT HELPS DCT TANZU DCT PGA BLAID20 KLAS |
| Aircraft | B307/M-V/N |
Departure
| Time | 2026-04-22 18:32 |
|---|---|
| Airport | Norfolk International Airport (KORF) |
Arrival
| Time | N/A |
|---|---|
| Airport | Harry Reid International Airport (KLAS) |
| Time | Latitude | Longitude | Altitude | Speed | Heading |
|---|---|---|---|---|---|
| 2026-04-22 18:13 | 36.88740 | -76.20085 | 28 ft | 0 kts | 39° |
| 2026-04-22 18:25 | 36.88740 | -76.20084 | 28 ft | 1 kts | 39° |
| 2026-04-22 18:25 | 36.88752 | -76.20074 | 28 ft | 1 kts | 26° |
| 2026-04-22 18:26 | 36.88774 | -76.20075 | 28 ft | 5 kts | 323° |
| 2026-04-22 18:26 | 36.88802 | -76.20092 | 28 ft | 4 kts | 355° |
| 2026-04-22 18:26 | 36.88825 | -76.20071 | 28 ft | 6 kts | 66° |
| 2026-04-22 18:26 | 36.88842 | -76.20012 | 28 ft | 8 kts | 68° |
| 2026-04-22 18:27 | 36.88867 | -76.19939 | 29 ft | 10 kts | 71° |
| 2026-04-22 18:27 | 36.88884 | -76.19854 | 29 ft | 11 kts | 98° |
| 2026-04-22 18:27 | 36.88899 | -76.19754 | 30 ft | 13 kts | 62° |
| 2026-04-22 18:27 | 36.88968 | -76.19695 | 31 ft | 12 kts | 26° |
| 2026-04-22 18:28 | 36.89050 | -76.19647 | 32 ft | 14 kts | 24° |
| 2026-04-22 18:28 | 36.89145 | -76.19593 | 32 ft | 16 kts | 24° |
| 2026-04-22 18:28 | 36.89254 | -76.19530 | 32 ft | 18 kts | 26° |
| 2026-04-22 18:28 | 36.89370 | -76.19472 | 33 ft | 18 kts | 2° |
| 2026-04-22 18:29 | 36.89502 | -76.19468 | 31 ft | 20 kts | 1° |
| 2026-04-22 18:29 | 36.89640 | -76.19463 | 32 ft | 19 kts | 3° |
| 2026-04-22 18:29 | 36.89771 | -76.19459 | 34 ft | 18 kts | 355° |
| 2026-04-22 18:29 | 36.89878 | -76.19459 | 34 ft | 7 kts | 1° |
| 2026-04-22 18:30 | 36.89882 | -76.19458 | 34 ft | 0 kts | 1° |
| 2026-04-22 18:30 | 36.89890 | -76.19458 | 34 ft | 3 kts | 0° |
| 2026-04-22 18:31 | 36.89924 | -76.19461 | 34 ft | 8 kts | 351° |
| 2026-04-22 18:31 | 36.89922 | -76.19539 | 33 ft | 16 kts | 218° |
| 2026-04-22 18:31 | 36.89736 | -76.19722 | 33 ft | 60 kts | 220° |
| 2026-04-22 18:31 | 36.89293 | -76.20128 | 73 ft | 93 kts | 220° |
| 2026-04-22 18:32 | 36.88719 | -76.20642 | 327 ft | 105 kts | 222° |
| 2026-04-22 18:32 | 36.88125 | -76.21187 | 729 ft | 108 kts | 217° |
| 2026-04-22 18:32 | 36.87462 | -76.21713 | 1040 ft | 119 kts | 215° |
| 2026-04-22 18:32 | 36.86727 | -76.22216 | 1349 ft | 125 kts | 214° |
| 2026-04-22 18:33 | 36.85899 | -76.22785 | 1437 ft | 145 kts | 213° |
| 2026-04-22 18:33 | 36.85009 | -76.23397 | 1724 ft | 147 kts | 212° |
| 2026-04-22 18:33 | 36.84100 | -76.24023 | 1998 ft | 150 kts | 214° |
| 2026-04-22 18:33 | 36.83184 | -76.24656 | 2286 ft | 150 kts | 213° |
| 2026-04-22 18:34 | 36.82267 | -76.25288 | 2554 ft | 151 kts | 213° |
| 2026-04-22 18:34 | 36.81350 | -76.25920 | 2841 ft | 151 kts | 214° |
| 2026-04-22 18:34 | 36.80463 | -76.26608 | 3108 ft | 148 kts | 230° |
| 2026-04-22 18:34 | 36.80160 | -76.27786 | 3381 ft | 148 kts | 272° |
| 2026-04-22 18:35 | 36.80590 | -76.28946 | 3652 ft | 155 kts | 308° |
| 2026-04-22 18:35 | 36.81480 | -76.29737 | 3932 ft | 157 kts | 318° |
| 2026-04-22 18:35 | 36.82234 | -76.30667 | 4214 ft | 154 kts | 301° |
| 2026-04-22 18:35 | 36.82812 | -76.31772 | 4536 ft | 150 kts | 298° |
| 2026-04-22 18:36 | 36.83369 | -76.32865 | 4832 ft | 148 kts | 298° |
| 2026-04-22 18:36 | 36.83913 | -76.33940 | 5105 ft | 146 kts | 298° |
| 2026-04-22 18:36 | 36.84451 | -76.35004 | 5355 ft | 144 kts | 298° |
| 2026-04-22 18:36 | 36.84983 | -76.36055 | 5638 ft | 143 kts | 298° |
| 2026-04-22 18:37 | 36.85511 | -76.37098 | 5920 ft | 141 kts | 298° |
| 2026-04-22 18:37 | 36.86030 | -76.38131 | 6203 ft | 139 kts | 298° |
| 2026-04-22 18:37 | 36.86536 | -76.39129 | 6487 ft | 137 kts | 297° |
| 2026-04-22 18:37 | 36.87038 | -76.40121 | 6759 ft | 134 kts | 297° |
| 2026-04-22 18:38 | 36.87532 | -76.41099 | 7025 ft | 132 kts | 297° |
| 2026-04-22 18:38 | 36.88016 | -76.42060 | 7294 ft | 129 kts | 297° |
| 2026-04-22 18:38 | 36.88492 | -76.43001 | 7565 ft | 127 kts | 297° |
| 2026-04-22 18:39 | 36.89418 | -76.44837 | 8107 ft | 122 kts | 297° |
| 2026-04-22 18:39 | 36.89867 | -76.45727 | 8382 ft | 120 kts | 297° |
| 2026-04-22 18:39 | 36.90308 | -76.46603 | 8663 ft | 118 kts | 296° |
| 2026-04-22 18:39 | 36.90738 | -76.47456 | 8940 ft | 117 kts | 296° |
| 2026-04-22 18:40 | 36.91168 | -76.48310 | 9214 ft | 115 kts | 296° |
| 2026-04-22 18:40 | 36.91591 | -76.49149 | 9503 ft | 113 kts | 296° |
| 2026-04-22 18:40 | 36.92006 | -76.49973 | 9799 ft | 111 kts | 296° |
| 2026-04-22 18:40 | 36.92413 | -76.50782 | 10070 ft | 109 kts | 297° |
| 2026-04-22 18:41 | 36.92825 | -76.51606 | 10328 ft | 116 kts | 297° |
| 2026-04-22 18:41 | 36.93263 | -76.52479 | 10599 ft | 121 kts | 297° |
| 2026-04-22 18:41 | 36.93723 | -76.53389 | 10882 ft | 126 kts | 297° |
| 2026-04-22 18:41 | 36.94194 | -76.54323 | 11177 ft | 128 kts | 298° |
| 2026-04-22 18:42 | 36.94608 | -76.55290 | 11461 ft | 128 kts | 284° |
| 2026-04-22 18:42 | 36.94766 | -76.56389 | 11738 ft | 129 kts | 281° |
| 2026-04-22 18:42 | 36.94938 | -76.57490 | 12034 ft | 129 kts | 282° |
| 2026-04-22 18:42 | 36.95113 | -76.58594 | 12338 ft | 129 kts | 282° |
| 2026-04-22 18:43 | 36.95288 | -76.59697 | 12642 ft | 129 kts | 282° |
| 2026-04-22 18:43 | 36.95466 | -76.60795 | 12962 ft | 129 kts | 281° |
| 2026-04-22 18:43 | 36.95639 | -76.61890 | 13267 ft | 128 kts | 281° |
| 2026-04-22 18:43 | 36.95811 | -76.62978 | 13583 ft | 127 kts | 281° |
| 2026-04-22 18:44 | 36.95979 | -76.64040 | 13882 ft | 126 kts | 281° |
| 2026-04-22 18:44 | 36.96148 | -76.65106 | 14154 ft | 125 kts | 282° |
| 2026-04-22 18:44 | 36.96316 | -76.66164 | 14427 ft | 123 kts | 282° |
| 2026-04-22 18:44 | 36.96483 | -76.67214 | 14698 ft | 123 kts | 282° |
| 2026-04-22 18:45 | 36.96648 | -76.68256 | 14974 ft | 122 kts | 282° |
| 2026-04-22 18:45 | 36.96811 | -76.69289 | 15245 ft | 121 kts | 282° |
| 2026-04-22 18:45 | 36.96979 | -76.70344 | 15426 ft | 126 kts | 283° |
| 2026-04-22 18:45 | 36.97152 | -76.71437 | 15612 ft | 130 kts | 283° |
| 2026-04-22 18:46 | 36.97331 | -76.72560 | 15809 ft | 133 kts | 283° |
| 2026-04-22 18:46 | 36.97510 | -76.73690 | 16002 ft | 135 kts | 283° |
| 2026-04-22 18:46 | 36.97693 | -76.74850 | 16200 ft | 137 kts | 283° |
| 2026-04-22 18:46 | 36.97878 | -76.76023 | 16399 ft | 138 kts | 283° |
| 2026-04-22 18:47 | 36.98065 | -76.77208 | 16597 ft | 139 kts | 284° |
| 2026-04-22 18:47 | 36.98260 | -76.78396 | 16798 ft | 139 kts | 287° |
| 2026-04-22 18:47 | 36.98556 | -76.79549 | 16999 ft | 140 kts | 288° |
| 2026-04-22 18:47 | 36.98822 | -76.80717 | 17195 ft | 140 kts | 288° |
| 2026-04-22 18:48 | 36.99098 | -76.81886 | 17418 ft | 140 kts | 289° |
| 2026-04-22 18:48 | 36.99375 | -76.83050 | 17619 ft | 140 kts | 289° |
| 2026-04-22 18:48 | 36.99650 | -76.84199 | 17821 ft | 140 kts | 289° |
| 2026-04-22 18:48 | 36.99928 | -76.85365 | 18027 ft | 140 kts | 289° |
| 2026-04-22 18:49 | 37.00205 | -76.86524 | 18241 ft | 139 kts | 289° |
| 2026-04-22 18:49 | 37.00481 | -76.87681 | 18429 ft | 139 kts | 289° |
| 2026-04-22 18:49 | 37.00756 | -76.88834 | 18608 ft | 138 kts | 289° |
| 2026-04-22 18:49 | 37.01030 | -76.89983 | 18783 ft | 138 kts | 289° |
| 2026-04-22 18:50 | 37.01303 | -76.91130 | 18961 ft | 137 kts | 289° |
| 2026-04-22 18:50 | 37.01577 | -76.92276 | 19140 ft | 137 kts | 289° |
| 2026-04-22 18:50 | 37.01845 | -76.93404 | 19308 ft | 137 kts | 289° |
| 2026-04-22 18:50 | 37.02117 | -76.94544 | 19494 ft | 137 kts | 289° |
| 2026-04-22 18:51 | 37.02388 | -76.95682 | 19673 ft | 136 kts | 289° |
| 2026-04-22 18:51 | 37.02657 | -76.96816 | 19854 ft | 136 kts | 289° |
| 2026-04-22 18:51 | 37.02926 | -76.97947 | 20029 ft | 136 kts | 289° |
| 2026-04-22 18:51 | 37.03200 | -76.99096 | 20093 ft | 142 kts | 289° |
| 2026-04-22 18:52 | 37.03493 | -77.00324 | 20094 ft | 152 kts | 289° |
| 2026-04-22 18:52 | 37.03801 | -77.01619 | 20103 ft | 158 kts | 289° |
| 2026-04-22 18:52 | 37.04120 | -77.02960 | 20114 ft | 163 kts | 289° |
| 2026-04-22 18:52 | 37.04442 | -77.04322 | 20111 ft | 168 kts | 289° |
| 2026-04-22 18:53 | 37.04777 | -77.05733 | 20112 ft | 171 kts | 289° |
| 2026-04-22 18:53 | 37.05100 | -77.07173 | 20114 ft | 173 kts | 284° |
| 2026-04-22 18:53 | 37.05344 | -77.08660 | 20113 ft | 175 kts | 286° |
| 2026-04-22 18:53 | 37.05628 | -77.10150 | 20113 ft | 177 kts | 286° |
| 2026-04-22 18:54 | 37.05901 | -77.11651 | 20115 ft | 177 kts | 285° |
| 2026-04-22 18:54 | 37.06170 | -77.13162 | 20111 ft | 178 kts | 285° |
| 2026-04-22 18:54 | 37.06439 | -77.14678 | 20113 ft | 179 kts | 285° |
| 2026-04-22 18:54 | 37.06706 | -77.16176 | 20111 ft | 179 kts | 285° |
| 2026-04-22 18:55 | 37.06976 | -77.17698 | 20110 ft | 179 kts | 285° |
| 2026-04-22 18:55 | 37.07247 | -77.19226 | 20112 ft | 180 kts | 285° |
| 2026-04-22 18:55 | 37.07519 | -77.20754 | 20109 ft | 180 kts | 285° |
| 2026-04-22 18:55 | 37.07790 | -77.22285 | 20109 ft | 180 kts | 285° |
| 2026-04-22 18:56 | 37.08061 | -77.23817 | 20113 ft | 180 kts | 285° |
| 2026-04-22 18:56 | 37.08332 | -77.25349 | 20113 ft | 180 kts | 285° |
| 2026-04-22 18:56 | 37.08603 | -77.26880 | 20110 ft | 180 kts | 285° |
| 2026-04-22 18:56 | 37.08874 | -77.28412 | 20109 ft | 180 kts | 285° |
| 2026-04-22 18:57 | 37.09145 | -77.29946 | 20109 ft | 180 kts | 285° |
| 2026-04-22 18:57 | 37.09412 | -77.31457 | 20111 ft | 180 kts | 285° |
| 2026-04-22 18:57 | 37.09682 | -77.32989 | 20113 ft | 180 kts | 285° |
| 2026-04-22 18:57 | 37.09952 | -77.34524 | 20111 ft | 180 kts | 285° |
| 2026-04-22 18:58 | 37.10222 | -77.36057 | 20110 ft | 181 kts | 285° |
| 2026-04-22 18:58 | 37.10492 | -77.37593 | 20113 ft | 180 kts | 285° |
| 2026-04-22 18:58 | 37.10762 | -77.39128 | 20113 ft | 181 kts | 285° |
| 2026-04-22 18:58 | 37.11032 | -77.40666 | 20109 ft | 181 kts | 285° |
| 2026-04-22 18:59 | 37.11301 | -77.42203 | 20113 ft | 181 kts | 285° |
| 2026-04-22 18:59 | 37.11567 | -77.43719 | 20113 ft | 181 kts | 285° |
| 2026-04-22 18:59 | 37.11836 | -77.45257 | 20112 ft | 181 kts | 285° |
| 2026-04-22 18:59 | 37.12106 | -77.46794 | 20113 ft | 181 kts | 285° |
| 2026-04-22 19:00 | 37.12375 | -77.48333 | 20111 ft | 181 kts | 285° |
| 2026-04-22 19:00 | 37.12644 | -77.49872 | 20112 ft | 181 kts | 285° |
| 2026-04-22 19:00 | 37.12913 | -77.51411 | 20110 ft | 181 kts | 285° |
| 2026-04-22 19:00 | 37.13181 | -77.52948 | 20111 ft | 180 kts | 285° |
| 2026-04-22 19:01 | 37.13448 | -77.54484 | 20108 ft | 181 kts | 285° |
| 2026-04-22 19:01 | 37.13716 | -77.56022 | 20111 ft | 181 kts | 285° |
| 2026-04-22 19:01 | 37.13984 | -77.57558 | 20112 ft | 180 kts | 285° |
| 2026-04-22 19:01 | 37.14247 | -77.59073 | 20113 ft | 180 kts | 285° |
| 2026-04-22 19:02 | 37.14515 | -77.60611 | 20112 ft | 181 kts | 285° |
| 2026-04-22 19:02 | 37.14781 | -77.62148 | 20111 ft | 181 kts | 285° |
| 2026-04-22 19:02 | 37.15048 | -77.63685 | 20111 ft | 180 kts | 285° |
| 2026-04-22 19:02 | 37.15314 | -77.65222 | 20109 ft | 180 kts | 285° |
| 2026-04-22 19:03 | 37.15580 | -77.66758 | 20108 ft | 180 kts | 285° |
| 2026-04-22 19:03 | 37.15846 | -77.68295 | 20111 ft | 180 kts | 285° |
| 2026-04-22 19:03 | 37.16112 | -77.69830 | 20109 ft | 180 kts | 285° |
| 2026-04-22 19:03 | 37.16377 | -77.71365 | 20111 ft | 180 kts | 285° |
| 2026-04-22 19:04 | 37.16642 | -77.72902 | 20110 ft | 181 kts | 285° |
| 2026-04-22 19:04 | 37.16904 | -77.74423 | 20110 ft | 181 kts | 285° |
| 2026-04-22 19:04 | 37.17170 | -77.75965 | 20108 ft | 181 kts | 285° |
| 2026-04-22 19:04 | 37.17436 | -77.77507 | 20110 ft | 181 kts | 285° |
| 2026-04-22 19:05 | 37.17701 | -77.79049 | 20106 ft | 181 kts | 285° |
| 2026-04-22 19:05 | 37.17963 | -77.80593 | 20106 ft | 181 kts | 284° |
| 2026-04-22 19:05 | 37.18152 | -77.82157 | 20113 ft | 181 kts | 283° |
| 2026-04-22 19:05 | 37.18391 | -77.83706 | 20114 ft | 181 kts | 284° |
| 2026-04-22 19:06 | 37.18617 | -77.85255 | 20116 ft | 181 kts | 283° |
| 2026-04-22 19:06 | 37.18830 | -77.86783 | 20117 ft | 180 kts | 283° |
| 2026-04-22 19:06 | 37.19046 | -77.88332 | 20118 ft | 180 kts | 283° |
| 2026-04-22 19:07 | 37.19477 | -77.91431 | 20100 ft | 180 kts | 283° |
| 2026-04-22 19:07 | 37.19692 | -77.92979 | 20103 ft | 181 kts | 283° |
| 2026-04-22 19:07 | 37.19908 | -77.94533 | 20101 ft | 181 kts | 283° |
| 2026-04-22 19:07 | 37.20124 | -77.96086 | 20091 ft | 181 kts | 283° |
| 2026-04-22 19:08 | 37.20340 | -77.97643 | 20091 ft | 181 kts | 283° |
| 2026-04-22 19:08 | 37.20553 | -77.99179 | 20092 ft | 181 kts | 283° |
| 2026-04-22 19:08 | 37.20768 | -78.00739 | 20093 ft | 181 kts | 282° |
| 2026-04-22 19:08 | 37.20984 | -78.02297 | 20094 ft | 181 kts | 283° |
| 2026-04-22 19:09 | 37.21199 | -78.03856 | 20096 ft | 182 kts | 283° |
| 2026-04-22 19:09 | 37.21415 | -78.05419 | 20095 ft | 182 kts | 282° |
| 2026-04-22 19:09 | 37.21557 | -78.06453 | 20095 ft | 182 kts | 282° |
| 2026-04-22 19:09 | 37.21845 | -78.08540 | 20096 ft | 181 kts | 282° |
| 2026-04-22 19:10 | 37.22059 | -78.10101 | 20092 ft | 182 kts | 282° |
| 2026-04-22 19:10 | 37.22274 | -78.11664 | 20094 ft | 182 kts | 283° |
| 2026-04-22 19:10 | 37.22486 | -78.13207 | 20095 ft | 182 kts | 283° |
| 2026-04-22 19:10 | 37.22700 | -78.14769 | 20095 ft | 182 kts | 283° |
| 2026-04-22 19:11 | 37.22914 | -78.16331 | 20098 ft | 182 kts | 283° |
| 2026-04-22 19:11 | 37.23128 | -78.17894 | 20098 ft | 182 kts | 283° |
| 2026-04-22 19:11 | 37.23342 | -78.19459 | 20098 ft | 182 kts | 282° |
| 2026-04-22 19:11 | 37.23555 | -78.21023 | 20100 ft | 182 kts | 282° |
| 2026-04-22 19:12 | 37.23769 | -78.22588 | 20101 ft | 182 kts | 283° |
| 2026-04-22 19:12 | 37.23982 | -78.24151 | 20101 ft | 182 kts | 283° |
| 2026-04-22 19:12 | 37.24195 | -78.25716 | 20108 ft | 182 kts | 283° |
| 2026-04-22 19:12 | 37.24405 | -78.27259 | 20110 ft | 182 kts | 283° |
| 2026-04-22 19:13 | 37.24618 | -78.28826 | 20105 ft | 182 kts | 282° |
| 2026-04-22 19:13 | 37.24830 | -78.30394 | 20107 ft | 182 kts | 282° |
| 2026-04-22 19:13 | 37.25043 | -78.31965 | 20105 ft | 183 kts | 282° |
| 2026-04-22 19:13 | 37.25257 | -78.33539 | 20108 ft | 183 kts | 282° |
| 2026-04-22 19:14 | 37.25470 | -78.35118 | 20108 ft | 184 kts | 282° |
| 2026-04-22 19:14 | 37.25685 | -78.36705 | 20111 ft | 185 kts | 282° |
| 2026-04-22 19:14 | 37.25899 | -78.38294 | 20108 ft | 184 kts | 282° |
| 2026-04-22 19:14 | 37.26112 | -78.39875 | 20111 ft | 183 kts | 282° |
| 2026-04-22 19:15 | 37.26253 | -78.40917 | 20107 ft | 183 kts | 282° |
| 2026-04-22 19:15 | 37.26534 | -78.43000 | 20107 ft | 183 kts | 282° |
| 2026-04-22 19:15 | 37.26744 | -78.44567 | 20106 ft | 182 kts | 282° |
| 2026-04-22 19:15 | 37.26955 | -78.46134 | 20106 ft | 182 kts | 282° |
| 2026-04-22 19:16 | 37.27164 | -78.47695 | 20104 ft | 181 kts | 282° |
| 2026-04-22 19:16 | 37.27374 | -78.49256 | 20100 ft | 181 kts | 282° |
| 2026-04-22 19:16 | 37.27582 | -78.50812 | 20096 ft | 181 kts | 282° |
| 2026-04-22 19:16 | 37.27790 | -78.52367 | 20093 ft | 180 kts | 282° |
| 2026-04-22 19:17 | 37.27997 | -78.53918 | 20095 ft | 180 kts | 282° |
| 2026-04-22 19:17 | 37.28200 | -78.55444 | 20092 ft | 180 kts | 282° |
| 2026-04-22 19:17 | 37.28406 | -78.56990 | 20092 ft | 179 kts | 282° |
| 2026-04-22 19:17 | 37.28612 | -78.58531 | 20093 ft | 179 kts | 282° |
| 2026-04-22 19:18 | 37.28818 | -78.60073 | 20095 ft | 179 kts | 282° |
| 2026-04-22 19:18 | 37.29022 | -78.61614 | 20095 ft | 179 kts | 282° |
| 2026-04-22 19:18 | 37.29228 | -78.63162 | 20095 ft | 180 kts | 282° |
| 2026-04-22 19:18 | 37.29433 | -78.64712 | 20096 ft | 180 kts | 282° |
| 2026-04-22 19:19 | 37.29639 | -78.66266 | 20095 ft | 181 kts | 282° |
| 2026-04-22 19:19 | 37.29843 | -78.67802 | 20100 ft | 181 kts | 282° |
| 2026-04-22 19:19 | 37.30050 | -78.69371 | 20098 ft | 184 kts | 282° |
| 2026-04-22 19:19 | 37.30261 | -78.70966 | 20100 ft | 186 kts | 282° |
| 2026-04-22 19:20 | 37.30474 | -78.72578 | 20101 ft | 188 kts | 282° |
| 2026-04-22 19:20 | 37.30688 | -78.74198 | 20107 ft | 188 kts | 282° |
| 2026-04-22 19:20 | 37.30902 | -78.75822 | 20113 ft | 188 kts | 282° |
| 2026-04-22 19:20 | 37.31114 | -78.77441 | 20117 ft | 187 kts | 282° |
| 2026-04-22 19:21 | 37.31326 | -78.79052 | 20121 ft | 187 kts | 282° |
| 2026-04-22 19:21 | 37.31537 | -78.80659 | 20121 ft | 186 kts | 282° |
| 2026-04-22 19:21 | 37.31744 | -78.82239 | 20119 ft | 186 kts | 282° |
| 2026-04-22 19:21 | 37.31954 | -78.83839 | 20125 ft | 185 kts | 282° |
| 2026-04-22 19:22 | 37.32163 | -78.85438 | 20125 ft | 185 kts | 282° |
| 2026-04-22 19:22 | 37.32372 | -78.87036 | 20126 ft | 185 kts | 282° |
| 2026-04-22 19:22 | 37.32580 | -78.88631 | 20128 ft | 185 kts | 282° |
| 2026-04-22 19:22 | 37.32788 | -78.90222 | 20128 ft | 184 kts | 282° |
| 2026-04-22 19:23 | 37.32994 | -78.91810 | 20129 ft | 184 kts | 282° |
| 2026-04-22 19:23 | 37.33201 | -78.93396 | 20132 ft | 184 kts | 282° |
| 2026-04-22 19:23 | 37.33408 | -78.94987 | 20130 ft | 184 kts | 282° |
| 2026-04-22 19:23 | 37.33611 | -78.96553 | 20131 ft | 184 kts | 282° |
| 2026-04-22 19:24 | 37.33816 | -78.98138 | 20130 ft | 183 kts | 282° |
| 2026-04-22 19:24 | 37.34021 | -78.99714 | 20130 ft | 183 kts | 282° |
| 2026-04-22 19:24 | 37.34224 | -79.01288 | 20129 ft | 182 kts | 282° |
| 2026-04-22 19:24 | 37.34428 | -79.02860 | 20128 ft | 182 kts | 282° |
| 2026-04-22 19:25 | 37.34631 | -79.04430 | 20129 ft | 182 kts | 282° |
| 2026-04-22 19:25 | 37.34833 | -79.05999 | 20123 ft | 182 kts | 282° |
| 2026-04-22 19:25 | 37.35035 | -79.07568 | 20129 ft | 181 kts | 282° |
| 2026-04-22 19:25 | 37.35233 | -79.09110 | 20130 ft | 181 kts | 282° |
| 2026-04-22 19:26 | 37.35435 | -79.10671 | 20132 ft | 181 kts | 282° |
| 2026-04-22 19:26 | 37.35635 | -79.12234 | 20129 ft | 181 kts | 282° |
| 2026-04-22 19:26 | 37.35834 | -79.13789 | 20131 ft | 180 kts | 282° |
| 2026-04-22 19:26 | 37.36034 | -79.15336 | 20130 ft | 179 kts | 282° |
| 2026-04-22 19:27 | 37.36231 | -79.16881 | 20130 ft | 179 kts | 282° |
| 2026-04-22 19:27 | 37.36429 | -79.18430 | 20132 ft | 180 kts | 282° |
| 2026-04-22 19:27 | 37.36627 | -79.19983 | 20129 ft | 180 kts | 282° |
| 2026-04-22 19:27 | 37.36825 | -79.21534 | 20129 ft | 180 kts | 282° |
| 2026-04-22 19:28 | 37.37021 | -79.23067 | 20132 ft | 180 kts | 282° |
| 2026-04-22 19:28 | 37.37218 | -79.24619 | 20131 ft | 180 kts | 282° |
| 2026-04-22 19:28 | 37.37416 | -79.26171 | 20129 ft | 180 kts | 282° |
| 2026-04-22 19:28 | 37.37612 | -79.27717 | 20129 ft | 179 kts | 282° |
| 2026-04-22 19:29 | 37.37809 | -79.29266 | 20129 ft | 179 kts | 282° |
| 2026-04-22 19:29 | 37.38005 | -79.30814 | 20128 ft | 179 kts | 282° |
| 2026-04-22 19:29 | 37.38202 | -79.32363 | 20129 ft | 180 kts | 282° |
| 2026-04-22 19:29 | 37.38395 | -79.33910 | 20125 ft | 178 kts | 282° |
| 2026-04-22 19:30 | 37.38522 | -79.34919 | 20128 ft | 175 kts | 282° |
| 2026-04-22 19:30 | 37.38746 | -79.36848 | 20119 ft | 160 kts | 282° |
| 2026-04-22 19:30 | 37.38923 | -79.38153 | 20113 ft | 144 kts | 283° |
| 2026-04-22 19:30 | 37.39079 | -79.39334 | 20107 ft | 131 kts | 283° |
| 2026-04-22 19:31 | 37.39215 | -79.40414 | 20105 ft | 120 kts | 283° |
| 2026-04-22 19:31 | 37.39339 | -79.41403 | 20099 ft | 110 kts | 283° |
| 2026-04-22 19:31 | 37.39454 | -79.42316 | 20066 ft | 103 kts | 284° |
| 2026-04-22 19:31 | 37.39565 | -79.43196 | 19955 ft | 103 kts | 284° |
| 2026-04-22 19:32 | 37.39679 | -79.44097 | 19819 ft | 105 kts | 284° |
| 2026-04-22 19:32 | 37.39789 | -79.44976 | 19767 ft | 100 kts | 284° |
| 2026-04-22 19:32 | 37.39895 | -79.45825 | 19709 ft | 97 kts | 284° |
| 2026-04-22 19:32 | 37.40000 | -79.46662 | 19611 ft | 97 kts | 284° |
| 2026-04-22 19:33 | 37.40105 | -79.47498 | 19530 ft | 96 kts | 284° |
| 2026-04-22 19:33 | 37.40208 | -79.48325 | 19443 ft | 95 kts | 284° |
| 2026-04-22 19:33 | 37.40309 | -79.49131 | 19379 ft | 92 kts | 284° |
| 2026-04-22 19:33 | 37.40407 | -79.49921 | 19286 ft | 92 kts | 284° |
| 2026-04-22 19:34 | 37.40506 | -79.50716 | 19192 ft | 92 kts | 284° |
| 2026-04-22 19:34 | 37.40603 | -79.51493 | 19139 ft | 88 kts | 284° |
| 2026-04-22 19:34 | 37.40696 | -79.52242 | 19055 ft | 87 kts | 284° |
| 2026-04-22 19:34 | 37.40791 | -79.52998 | 18953 ft | 88 kts | 284° |
| 2026-04-22 19:35 | 37.40886 | -79.53764 | 18861 ft | 88 kts | 284° |
| 2026-04-22 19:35 | 37.40981 | -79.54523 | 18785 ft | 88 kts | 284° |
| 2026-04-22 19:35 | 37.41044 | -79.55027 | 18723 ft | 88 kts | 284° |
| 2026-04-22 19:35 | 37.41171 | -79.56043 | 18624 ft | 88 kts | 284° |
| 2026-04-22 19:36 | 37.41265 | -79.56801 | 18549 ft | 88 kts | 284° |
| 2026-04-22 19:36 | 37.41359 | -79.57558 | 18480 ft | 87 kts | 284° |
| 2026-04-22 19:36 | 37.41452 | -79.58305 | 18400 ft | 88 kts | 284° |
| 2026-04-22 19:36 | 37.41546 | -79.59060 | 18331 ft | 87 kts | 284° |
| 2026-04-22 19:37 | 37.41638 | -79.59811 | 18262 ft | 87 kts | 283° |
| 2026-04-22 19:37 | 37.41731 | -79.60563 | 18243 ft | 86 kts | 284° |
| 2026-04-22 19:37 | 37.41823 | -79.61307 | 18178 ft | 86 kts | 284° |
| 2026-04-22 19:37 | 37.41915 | -79.62047 | 18095 ft | 86 kts | 284° |
| 2026-04-22 19:38 | 37.42007 | -79.62792 | 18003 ft | 86 kts | 284° |
| 2026-04-22 19:38 | 37.42100 | -79.63541 | 17910 ft | 87 kts | 284° |
| 2026-04-22 19:38 | 37.42194 | -79.64294 | 17823 ft | 88 kts | 284° |
| 2026-04-22 19:38 | 37.42288 | -79.65058 | 17766 ft | 87 kts | 284° |
| 2026-04-22 19:39 | 37.42380 | -79.65805 | 17695 ft | 87 kts | 284° |
| 2026-04-22 19:39 | 37.42475 | -79.66556 | 17588 ft | 88 kts | 284° |
| 2026-04-22 19:39 | 37.42567 | -79.67310 | 17535 ft | 86 kts | 284° |
| 2026-04-22 19:39 | 37.42660 | -79.68058 | 17430 ft | 88 kts | 284° |
| 2026-04-22 19:40 | 37.42753 | -79.68814 | 17370 ft | 86 kts | 284° |
| 2026-04-22 19:40 | 37.42845 | -79.69557 | 17260 ft | 87 kts | 284° |
| 2026-04-22 19:40 | 37.42937 | -79.70303 | 17172 ft | 85 kts | 284° |
| 2026-04-22 19:40 | 37.43027 | -79.71040 | 17061 ft | 86 kts | 284° |
| 2026-04-22 19:41 | 37.43119 | -79.71785 | 16958 ft | 85 kts | 284° |
| 2026-04-22 19:41 | 37.43208 | -79.72517 | 16881 ft | 84 kts | 284° |
| 2026-04-22 19:41 | 37.43297 | -79.73236 | 16760 ft | 84 kts | 284° |
| 2026-04-22 19:41 | 37.43387 | -79.73945 | 16651 ft | 81 kts | 284° |
| 2026-04-22 19:42 | 37.43474 | -79.74667 | 16458 ft | 88 kts | 284° |
| 2026-04-22 19:42 | 37.43566 | -79.75420 | 16446 ft | 83 kts | 283° |
| 2026-04-22 19:42 | 37.43654 | -79.76144 | 16361 ft | 85 kts | 284° |
| 2026-04-22 19:42 | 37.43745 | -79.76887 | 16292 ft | 86 kts | 284° |
| 2026-04-22 19:43 | 37.43927 | -79.78356 | 16147 ft | 87 kts | 283° |
| 2026-04-22 19:43 | 37.44018 | -79.79108 | 16099 ft | 85 kts | 283° |
| 2026-04-22 19:43 | 37.44106 | -79.79826 | 16024 ft | 86 kts | 284° |
| 2026-04-22 19:44 | 37.44201 | -79.80593 | 15941 ft | 88 kts | 284° |
| 2026-04-22 19:44 | 37.44289 | -79.81323 | 15951 ft | 83 kts | 284° |
| 2026-04-22 19:44 | 37.44383 | -79.82077 | 15806 ft | 90 kts | 283° |
| 2026-04-22 19:44 | 37.44472 | -79.82820 | 15829 ft | 82 kts | 284° |
| 2026-04-22 19:45 | 37.44561 | -79.83557 | 15709 ft | 88 kts | 284° |
| 2026-04-22 19:45 | 37.44651 | -79.84300 | 15716 ft | 82 kts | 284° |
| 2026-04-22 19:45 | 37.44740 | -79.85019 | 15605 ft | 87 kts | 284° |
| 2026-04-22 19:45 | 37.44827 | -79.85736 | 15677 ft | 74 kts | 284° |
| 2026-04-22 19:46 | 37.44908 | -79.86388 | 15521 ft | 85 kts | 284° |
| 2026-04-22 19:46 | 37.44997 | -79.87130 | 15523 ft | 78 kts | 284° |
| 2026-04-22 19:46 | 37.45078 | -79.87793 | 15428 ft | 84 kts | 284° |
| 2026-04-22 19:46 | 37.45169 | -79.88541 | 15388 ft | 81 kts | 283° |
| 2026-04-22 19:47 | 37.45250 | -79.89209 | 15373 ft | 80 kts | 284° |
| 2026-04-22 19:47 | 37.45340 | -79.89941 | 15288 ft | 83 kts | 284° |
| 2026-04-22 19:47 | 37.45393 | -79.90391 | 15327 ft | 76 kts | 284° |
| 2026-04-22 19:47 | 37.45505 | -79.91319 | 15201 ft | 82 kts | 284° |
| 2026-04-22 19:48 | 37.45585 | -79.91999 | 15176 ft | 78 kts | 284° |
| 2026-04-22 19:48 | 37.45669 | -79.92703 | 15079 ft | 82 kts | 284° |
| 2026-04-22 19:48 | 37.45748 | -79.93386 | 15069 ft | 78 kts | 284° |
| 2026-04-22 19:48 | 37.45832 | -79.94079 | 14980 ft | 82 kts | 284° |
| 2026-04-22 19:49 | 37.45912 | -79.94767 | 14965 ft | 78 kts | 284° |
| 2026-04-22 19:49 | 37.45994 | -79.95456 | 14888 ft | 81 kts | 284° |
| 2026-04-22 19:49 | 37.46075 | -79.96147 | 14867 ft | 78 kts | 284° |
| 2026-04-22 19:49 | 37.46158 | -79.96833 | 14807 ft | 81 kts | 283° |
| 2026-04-22 19:50 | 37.46238 | -79.97515 | 14780 ft | 79 kts | 283° |
| 2026-04-22 19:50 | 37.46318 | -79.98198 | 14721 ft | 80 kts | 283° |
| 2026-04-22 19:50 | 37.46398 | -79.98883 | 14687 ft | 78 kts | 283° |
| 2026-04-22 19:50 | 37.46479 | -79.99561 | 14632 ft | 79 kts | 283° |
| 2026-04-22 19:51 | 37.46559 | -80.00243 | 14603 ft | 78 kts | 284° |
| 2026-04-22 19:51 | 37.46640 | -80.00920 | 14539 ft | 80 kts | 283° |
| 2026-04-22 19:51 | 37.46726 | -80.01604 | 14519 ft | 78 kts | 289° |
| 2026-04-22 19:51 | 37.46816 | -80.02244 | 14563 ft | 74 kts | 287° |
| 2026-04-22 19:52 | 37.46886 | -80.02925 | 14390 ft | 85 kts | 287° |
| 2026-04-22 19:52 | 37.46982 | -80.03595 | 14528 ft | 70 kts | 287° |
| 2026-04-22 19:52 | 37.47070 | -80.04228 | 14472 ft | 82 kts | 288° |
| 2026-04-22 19:52 | 37.47093 | -80.04871 | 14657 ft | 78 kts | 237° |
| 2026-04-22 19:53 | 37.46262 | -80.04054 | 12398 ft | 263 kts | 129° |
| 2026-04-22 19:53 | 37.45147 | -80.02302 | 12379 ft | 257 kts | 132° |
| 2026-04-22 19:53 | 37.44506 | -80.01041 | 12269 ft | 259 kts | 114° |
| 2026-04-22 19:53 | 37.44459 | -79.98164 | 12349 ft | 240 kts | 63° |
| 2026-04-22 19:54 | 37.45437 | -79.96643 | 12458 ft | 214 kts | 24° |
| 2026-04-22 19:54 | 37.46774 | -79.96176 | 12593 ft | 192 kts | 352° |
| 2026-04-22 19:54 | 37.47987 | -79.96595 | 12735 ft | 175 kts | 323° |
| 2026-04-22 19:54 | 37.48757 | -79.97699 | 12884 ft | 167 kts | 294° |
| 2026-04-22 19:55 | 37.48884 | -79.99120 | 13029 ft | 171 kts | 265° |
| 2026-04-22 19:55 | 37.48362 | -80.00484 | 13181 ft | 176 kts | 244° |
| 2026-04-22 19:55 | 37.47742 | -80.01793 | 13347 ft | 172 kts | 251° |
| 2026-04-22 19:55 | 37.47338 | -80.03200 | 13497 ft | 169 kts | 262° |
| 2026-04-22 19:56 | 37.47164 | -80.04643 | 13660 ft | 165 kts | 273° |
| 2026-04-22 19:56 | 37.47252 | -80.06068 | 13810 ft | 162 kts | 280° |
| 2026-04-22 19:56 | 37.47414 | -80.07466 | 13971 ft | 161 kts | 281° |
| 2026-04-22 19:56 | 37.47578 | -80.08861 | 14112 ft | 161 kts | 281° |
| 2026-04-22 19:57 | 37.47740 | -80.10249 | 14249 ft | 160 kts | 281° |
| 2026-04-22 19:57 | 37.47902 | -80.11630 | 14385 ft | 159 kts | 282° |
| 2026-04-22 19:57 | 37.48060 | -80.12983 | 14528 ft | 158 kts | 281° |
| 2026-04-22 19:57 | 37.48220 | -80.14355 | 14669 ft | 158 kts | 281° |
| 2026-04-22 19:58 | 37.48379 | -80.15713 | 14812 ft | 155 kts | 281° |
| 2026-04-22 19:58 | 37.48532 | -80.17041 | 14953 ft | 152 kts | 282° |
| 2026-04-22 19:58 | 37.48686 | -80.18363 | 15101 ft | 153 kts | 282° |
| 2026-04-22 19:58 | 37.48841 | -80.19691 | 15247 ft | 154 kts | 282° |
| 2026-04-22 19:59 | 37.48995 | -80.21019 | 15392 ft | 153 kts | 282° |
| 2026-04-22 20:00 | 37.49903 | -80.28863 | 16314 ft | 150 kts | 282° |
| 2026-04-22 20:00 | 37.50053 | -80.30158 | 16466 ft | 149 kts | 282° |
| 2026-04-22 20:01 | 37.50200 | -80.31440 | 16625 ft | 148 kts | 282° |
| 2026-04-22 20:01 | 37.50350 | -80.32724 | 16797 ft | 149 kts | 282° |
| 2026-04-22 20:01 | 37.50497 | -80.34016 | 16951 ft | 149 kts | 282° |
| 2026-04-22 20:01 | 37.50643 | -80.35307 | 17120 ft | 149 kts | 282° |
| 2026-04-22 20:02 | 37.50793 | -80.36601 | 17282 ft | 150 kts | 283° |
| 2026-04-22 20:02 | 37.50940 | -80.37878 | 17456 ft | 149 kts | 283° |
| 2026-04-22 20:02 | 37.51088 | -80.39171 | 17610 ft | 149 kts | 283° |
| 2026-04-22 20:02 | 37.51234 | -80.40456 | 17773 ft | 147 kts | 283° |
| 2026-04-22 20:03 | 37.51379 | -80.41724 | 17932 ft | 145 kts | 283° |
| 2026-04-22 20:03 | 37.51519 | -80.42971 | 18103 ft | 144 kts | 283° |
| 2026-04-22 20:03 | 37.51665 | -80.44228 | 18268 ft | 146 kts | 283° |
| 2026-04-22 20:03 | 37.51810 | -80.45494 | 18430 ft | 146 kts | 283° |
| 2026-04-22 20:04 | 37.51953 | -80.46758 | 18586 ft | 146 kts | 283° |
| 2026-04-22 20:04 | 37.52095 | -80.48000 | 18728 ft | 145 kts | 283° |
| 2026-04-22 20:04 | 37.52238 | -80.49256 | 18879 ft | 145 kts | 283° |
| 2026-04-22 20:04 | 37.52380 | -80.50508 | 19019 ft | 144 kts | 283° |
| 2026-04-22 20:05 | 37.52521 | -80.51752 | 19157 ft | 143 kts | 283° |
| 2026-04-22 20:05 | 37.52662 | -80.52989 | 19304 ft | 143 kts | 283° |
| 2026-04-22 20:05 | 37.52801 | -80.54227 | 19450 ft | 142 kts | 283° |
| 2026-04-22 20:05 | 37.52941 | -80.55459 | 19600 ft | 142 kts | 283° |
| 2026-04-22 20:06 | 37.53078 | -80.56683 | 19751 ft | 141 kts | 283° |
| 2026-04-22 20:06 | 37.53217 | -80.57905 | 19897 ft | 141 kts | 283° |
| 2026-04-22 20:06 | 37.53354 | -80.59127 | 20053 ft | 141 kts | 283° |
| 2026-04-22 20:06 | 37.53490 | -80.60334 | 20157 ft | 143 kts | 282° |
| 2026-04-22 20:07 | 37.53635 | -80.61605 | 20167 ft | 150 kts | 282° |
| 2026-04-22 20:07 | 37.53785 | -80.62940 | 20169 ft | 157 kts | 282° |
| 2026-04-22 20:07 | 37.53943 | -80.64327 | 20172 ft | 163 kts | 282° |
| 2026-04-22 20:07 | 37.54104 | -80.65754 | 20176 ft | 166 kts | 282° |
| 2026-04-22 20:08 | 37.54265 | -80.67205 | 20187 ft | 168 kts | 282° |
| 2026-04-22 20:08 | 37.54431 | -80.68677 | 20185 ft | 171 kts | 282° |
| 2026-04-22 20:08 | 37.54597 | -80.70168 | 20184 ft | 173 kts | 282° |
| 2026-04-22 20:08 | 37.54708 | -80.71163 | 20188 ft | 173 kts | 282° |
| 2026-04-22 20:09 | 37.54933 | -80.73174 | 20184 ft | 176 kts | 282° |
| 2026-04-22 20:09 | 37.55103 | -80.74701 | 20183 ft | 176 kts | 282° |
| 2026-04-22 20:09 | 37.55273 | -80.76235 | 20189 ft | 177 kts | 282° |
| 2026-04-22 20:09 | 37.55444 | -80.77770 | 20192 ft | 177 kts | 282° |
| 2026-04-22 20:10 | 37.55616 | -80.79311 | 20193 ft | 178 kts | 282° |
| 2026-04-22 20:10 | 37.55729 | -80.80334 | 20192 ft | 178 kts | 282° |
| 2026-04-22 20:10 | 37.55900 | -80.81879 | 20195 ft | 178 kts | 282° |
| 2026-04-22 20:10 | 37.56072 | -80.83426 | 20195 ft | 178 kts | 282° |
| 2026-04-22 20:11 | 37.56243 | -80.84973 | 20195 ft | 178 kts | 282° |
| 2026-04-22 20:11 | 37.56414 | -80.86521 | 20191 ft | 179 kts | 282° |
| 2026-04-22 20:11 | 37.56642 | -80.88585 | 20193 ft | 180 kts | 281° |
| 2026-04-22 20:11 | 37.56812 | -80.90139 | 20197 ft | 179 kts | 281° |
| 2026-04-22 20:12 | 37.56981 | -80.91689 | 20188 ft | 179 kts | 281° |
| 2026-04-22 20:12 | 37.57152 | -80.93242 | 20192 ft | 178 kts | 281° |
| 2026-04-22 20:12 | 37.57265 | -80.94267 | 20195 ft | 178 kts | 282° |
| 2026-04-22 20:12 | 37.57435 | -80.95814 | 20199 ft | 179 kts | 281° |
| 2026-04-22 20:13 | 37.57606 | -80.97371 | 20198 ft | 180 kts | 281° |
| 2026-04-22 20:13 | 37.57775 | -80.98930 | 20199 ft | 179 kts | 282° |
| 2026-04-22 20:13 | 37.57945 | -81.00482 | 20201 ft | 179 kts | 282° |
| 2026-04-22 20:13 | 37.58170 | -81.02547 | 20202 ft | 180 kts | 282° |
| 2026-04-22 20:14 | 37.58285 | -81.03599 | 20201 ft | 179 kts | 282° |
| 2026-04-22 20:14 | 37.58452 | -81.05140 | 20202 ft | 179 kts | 280° |
| 2026-04-22 20:14 | 37.58589 | -81.06662 | 20183 ft | 164 kts | 281° |
| 2026-04-22 20:14 | 37.58738 | -81.07986 | 20181 ft | 146 kts | 282° |
| 2026-04-22 20:15 | 37.58872 | -81.09193 | 20173 ft | 132 kts | 282° |
| 2026-04-22 20:15 | 37.59008 | -81.10298 | 20183 ft | 129 kts | 284° |
| 2026-04-22 20:15 | 37.59141 | -81.11475 | 20188 ft | 141 kts | 282° |
| 2026-04-22 20:15 | 37.59277 | -81.12744 | 20186 ft | 151 kts | 282° |
| 2026-04-22 20:16 | 37.59422 | -81.14085 | 20188 ft | 158 kts | 282° |
| 2026-04-22 20:16 | 37.59573 | -81.15484 | 20128 ft | 166 kts | 282° |
| 2026-04-22 20:16 | 37.59746 | -81.17054 | 19670 ft | 193 kts | 281° |
| 2026-04-22 20:16 | 37.59934 | -81.18785 | 19254 ft | 209 kts | 281° |
| 2026-04-22 20:17 | 37.60133 | -81.20648 | 18873 ft | 219 kts | 281° |
| 2026-04-22 20:17 | 37.60326 | -81.22489 | 18998 ft | 204 kts | 281° |
| 2026-04-22 20:17 | 37.60507 | -81.24198 | 19151 ft | 191 kts | 281° |
| 2026-04-22 20:17 | 37.60680 | -81.25827 | 19210 ft | 186 kts | 281° |
| 2026-04-22 20:18 | 37.60854 | -81.27439 | 19231 ft | 184 kts | 282° |
| 2026-04-22 20:18 | 37.61021 | -81.29007 | 19348 ft | 177 kts | 281° |
| 2026-04-22 20:18 | 37.61183 | -81.30524 | 19479 ft | 172 kts | 281° |
| 2026-04-22 20:18 | 37.61340 | -81.32005 | 19597 ft | 168 kts | 281° |
| 2026-04-22 20:19 | 37.61492 | -81.33434 | 19689 ft | 167 kts | 281° |
| 2026-04-22 20:19 | 37.61662 | -81.34991 | 19263 ft | 192 kts | 281° |
| 2026-04-22 20:19 | 37.61839 | -81.36664 | 19209 ft | 192 kts | 281° |
| 2026-04-22 20:19 | 37.62012 | -81.38320 | 19202 ft | 189 kts | 281° |
| 2026-04-22 20:20 | 37.62183 | -81.39955 | 19206 ft | 187 kts | 281° |
| 2026-04-22 20:20 | 37.62356 | -81.41578 | 19203 ft | 186 kts | 281° |
| 2026-04-22 20:20 | 37.62525 | -81.43195 | 19200 ft | 186 kts | 281° |
| 2026-04-22 20:20 | 37.62696 | -81.44805 | 19201 ft | 185 kts | 281° |
| 2026-04-22 20:21 | 37.62866 | -81.46409 | 19200 ft | 184 kts | 281° |
| 2026-04-22 20:21 | 37.63032 | -81.47986 | 19199 ft | 184 kts | 281° |
| 2026-04-22 20:21 | 37.63199 | -81.49582 | 19198 ft | 183 kts | 281° |
| 2026-04-22 20:21 | 37.63365 | -81.51175 | 19198 ft | 183 kts | 281° |
| 2026-04-22 20:22 | 37.63532 | -81.52769 | 19195 ft | 183 kts | 281° |
| 2026-04-22 20:22 | 37.63698 | -81.54360 | 19194 ft | 183 kts | 281° |
| 2026-04-22 20:22 | 37.63864 | -81.55951 | 19191 ft | 182 kts | 281° |
| 2026-04-22 20:22 | 37.64029 | -81.57532 | 19192 ft | 182 kts | 281° |
| 2026-04-22 20:23 | 37.64194 | -81.59115 | 19191 ft | 182 kts | 281° |
| 2026-04-22 20:23 | 37.64357 | -81.60693 | 19185 ft | 180 kts | 281° |
| 2026-04-22 20:23 | 37.64519 | -81.62264 | 19191 ft | 181 kts | 281° |
| 2026-04-22 20:23 | 37.64687 | -81.63842 | 19186 ft | 181 kts | 281° |
| 2026-04-22 20:24 | 37.64854 | -81.65421 | 19191 ft | 182 kts | 281° |
| 2026-04-22 20:24 | 37.65019 | -81.66991 | 19175 ft | 184 kts | 281° |
| 2026-04-22 20:24 | 37.65187 | -81.68595 | 19176 ft | 185 kts | 281° |